sensor_id;sensor_type;location;lat;lon;timestamp;temperature;humidity
9939;DHT22;5008;50.656;7.188;2023-03-23T05:00:44;12.40;99.90
9939;DHT22;5008;50.656;7.188;2023-03-23T05:03:15;12.30;99.90
9939;DHT22;5008;50.656;7.188;2023-03-23T05:05:41;12.20;99.90
9939;DHT22;5008;50.656;7.188;2023-03-23T05:08:12;12.20;99.90
9939;DHT22;5008;50.656;7.188;2023-03-23T05:10:39;12.20;99.90
9939;DHT22;5008;50.656;7.188;2023-03-23T05:13:10;12.10;99.90
9939;DHT22;5008;50.656;7.188;2023-03-23T05:15:36;12.10;99.90
9939;DHT22;5008;50.656;7.188;2023-03-23T05:18:05;12.20;99.90
9939;DHT22;5008;50.656;7.188;2023-03-23T05:20:32;12.10;99.90
9939;DHT22;5008;50.656;7.188;2023-03-23T05:22:59;12.10;99.90
9939;DHT22;5008;50.656;7.188;2023-03-23T05:25:26;12.00;99.90
9939;DHT22;5008;50.656;7.188;2023-03-23T05:27:52;12.00;99.90
9939;DHT22;5008;50.656;7.188;2023-03-23T05:30:20;12.00;99.90
9939;DHT22;5008;50.656;7.188;2023-03-23T05:32:55;11.90;99.90
9939;DHT22;5008;50.656;7.188;2023-03-23T05:35:23;11.90;99.90
9939;DHT22;5008;50.656;7.188;2023-03-23T05:37:50;11.90;99.90
9939;DHT22;5008;50.656;7.188;2023-03-23T05:40:19;11.90;99.90
9939;DHT22;5008;50.656;7.188;2023-03-23T05:42:46;11.90;99.90
9939;DHT22;5008;50.656;7.188;2023-03-23T05:45:14;11.90;99.90
9939;DHT22;5008;50.656;7.188;2023-03-23T05:47:41;12.00;99.90
9939;DHT22;5008;50.656;7.188;2023-03-23T05:50:09;12.00;99.90
9939;DHT22;5008;50.656;7.188;2023-03-23T05:52:37;12.00;99.90
9939;DHT22;5008;50.656;7.188;2023-03-23T05:55:06;12.30;99.90
9939;DHT22;5008;50.656;7.188;2023-03-23T05:57:33;12.40;99.90
9939;DHT22;5008;50.656;7.188;2023-03-23T06:00:00;12.40;99.90
9939;DHT22;5008;50.656;7.188;2023-03-23T06:02:31;12.50;99.90
9939;DHT22;5008;50.656;7.188;2023-03-23T06:04:59;12.30;99.90
9939;DHT22;5008;50.656;7.188;2023-03-23T06:07:26;12.30;99.90
9939;DHT22;5008;50.656;7.188;2023-03-23T06:09:54;12.40;99.90
9939;DHT22;5008;50.656;7.188;2023-03-23T06:12:30;12.30;99.90
9939;DHT22;5008;50.656;7.188;2023-03-23T06:15:05;12.30;99.90
9939;DHT22;5008;50.656;7.188;2023-03-23T06:17:32;12.30;99.90
9939;DHT22;5008;50.656;7.188;2023-03-23T06:20:11;12.30;99.90
9939;DHT22;5008;50.656;7.188;2023-03-23T06:22:39;12.30;99.90
9939;DHT22;5008;50.656;7.188;2023-03-23T06:25:09;12.30;99.90
9939;DHT22;5008;50.656;7.188;2023-03-23T06:27:38;12.40;99.90
9939;DHT22;5008;50.656;7.188;2023-03-23T06:30:06;12.40;99.90
9939;DHT22;5008;50.656;7.188;2023-03-23T06:32:33;12.40;99.90
9939;DHT22;5008;50.656;7.188;2023-03-23T06:35:04;12.40;99.90
9939;DHT22;5008;50.656;7.188;2023-03-23T06:37:34;12.50;99.90
9939;DHT22;5008;50.656;7.188;2023-03-23T06:40:02;12.50;99.90
9939;DHT22;5008;50.656;7.188;2023-03-23T06:42:31;12.50;99.90
9939;DHT22;5008;50.656;7.188;2023-03-23T06:45:00;12.60;99.90
9939;DHT22;5008;50.656;7.188;2023-03-23T06:47:27;12.60;99.90
9939;DHT22;5008;50.656;7.188;2023-03-23T06:49:55;12.70;99.90
9939;DHT22;5008;50.656;7.188;2023-03-23T06:52:22;12.80;99.90
9939;DHT22;5008;50.656;7.188;2023-03-23T06:54:49;12.80;99.90
9939;DHT22;5008;50.656;7.188;2023-03-23T06:57:16;12.90;99.90
9939;DHT22;5008;50.656;7.188;2023-03-23T06:59:45;12.90;99.90
9939;DHT22;5008;50.656;7.188;2023-03-23T07:02:13;12.90;99.90
9939;DHT22;5008;50.656;7.188;2023-03-23T07:04:40;13.00;99.90
9939;DHT22;5008;50.656;7.188;2023-03-23T07:07:08;13.00;99.90
9939;DHT22;5008;50.656;7.188;2023-03-23T07:09:37;13.00;99.90
9939;DHT22;5008;50.656;7.188;2023-03-23T07:12:05;13.10;99.90
9939;DHT22;5008;50.656;7.188;2023-03-23T07:14:32;13.20;99.90
9939;DHT22;5008;50.656;7.188;2023-03-23T07:17:00;13.20;99.90
9939;DHT22;5008;50.656;7.188;2023-03-23T07:19:27;13.20;99.90
9939;DHT22;5008;50.656;7.188;2023-03-23T07:21:55;13.20;99.90
9939;DHT22;5008;50.656;7.188;2023-03-23T07:24:23;13.20;99.90
9939;DHT22;5008;50.656;7.188;2023-03-23T07:27:00;13.20;99.90
9939;DHT22;5008;50.656;7.188;2023-03-23T07:29:27;13.40;99.90
9939;DHT22;5008;50.656;7.188;2023-03-23T07:31:53;13.40;99.90
9939;DHT22;5008;50.656;7.188;2023-03-23T07:34:22;13.40;99.90
9939;DHT22;5008;50.656;7.188;2023-03-23T07:36:49;13.50;99.90
9939;DHT22;5008;50.656;7.188;2023-03-23T07:39:16;13.60;99.90
9939;DHT22;5008;50.656;7.188;2023-03-23T07:41:43;13.60;99.90
9939;DHT22;5008;50.656;7.188;2023-03-23T07:44:10;13.70;99.90
9939;DHT22;5008;50.656;7.188;2023-03-23T07:46:36;13.70;99.90
9939;DHT22;5008;50.656;7.188;2023-03-23T07:49:06;13.70;99.90
9939;DHT22;5008;50.656;7.188;2023-03-23T07:51:34;13.70;99.90
9939;DHT22;5008;50.656;7.188;2023-03-23T07:54:03;13.70;99.90
9939;DHT22;5008;50.656;7.188;2023-03-23T07:56:32;13.70;99.90
9939;DHT22;5008;50.656;7.188;2023-03-23T07:58:59;13.90;99.90
9939;DHT22;5008;50.656;7.188;2023-03-23T08:01:28;13.90;99.90
9939;DHT22;5008;50.656;7.188;2023-03-23T08:03:55;13.90;99.90
9939;DHT22;5008;50.656;7.188;2023-03-23T08:06:22;14.00;99.90
9939;DHT22;5008;50.656;7.188;2023-03-23T08:08:51;14.00;99.90
9939;DHT22;5008;50.656;7.188;2023-03-23T08:11:18;14.00;99.90
9939;DHT22;5008;50.656;7.188;2023-03-23T08:13:48;14.00;99.90
9939;DHT22;5008;50.656;7.188;2023-03-23T08:16:15;14.10;99.90
9939;DHT22;5008;50.656;7.188;2023-03-23T08:18:42;14.00;99.90
9939;DHT22;5008;50.656;7.188;2023-03-23T08:21:08;14.00;99.90
9939;DHT22;5008;50.656;7.188;2023-03-23T08:23:36;14.10;99.90
9939;DHT22;5008;50.656;7.188;2023-03-23T08:26:05;14.10;99.90
9939;DHT22;5008;50.656;7.188;2023-03-23T08:28:33;14.20;99.90
9939;DHT22;5008;50.656;7.188;2023-03-23T08:30:59;14.20;99.90
9939;DHT22;5008;50.656;7.188;2023-03-23T08:33:26;14.20;99.90
9939;DHT22;5008;50.656;7.188;2023-03-23T08:35:55;14.20;99.90
9939;DHT22;5008;50.656;7.188;2023-03-23T08:38:22;14.20;99.90
9939;DHT22;5008;50.656;7.188;2023-03-23T08:40:49;14.10;99.90
9939;DHT22;5008;50.656;7.188;2023-03-23T08:43:18;14.10;99.90
9939;DHT22;5008;50.656;7.188;2023-03-23T08:45:45;14.10;99.90
9939;DHT22;5008;50.656;7.188;2023-03-23T08:48:12;14.20;99.90
9939;DHT22;5008;50.656;7.188;2023-03-23T08:50:38;14.30;99.90
9939;DHT22;5008;50.656;7.188;2023-03-23T08:53:06;14.30;99.90
9939;DHT22;5008;50.656;7.188;2023-03-23T08:55:33;14.30;99.90
9939;DHT22;5008;50.656;7.188;2023-03-23T08:57:59;14.40;99.90
9939;DHT22;5008;50.656;7.188;2023-03-23T09:00:28;14.40;99.90
9939;DHT22;5008;50.656;7.188;2023-03-23T09:02:57;14.50;99.90
9939;DHT22;5008;50.656;7.188;2023-03-23T09:05:27;14.50;99.90
9939;DHT22;5008;50.656;7.188;2023-03-23T09:07:58;14.70;99.90
9939;DHT22;5008;50.656;7.188;2023-03-23T09:10:29;14.70;99.90
9939;DHT22;5008;50.656;7.188;2023-03-23T09:12:56;14.60;99.90
9939;DHT22;5008;50.656;7.188;2023-03-23T09:15:25;14.70;99.90
9939;DHT22;5008;50.656;7.188;2023-03-23T09:17:54;14.80;99.90
9939;DHT22;5008;50.656;7.188;2023-03-23T09:20:23;14.70;99.90
9939;DHT22;5008;50.656;7.188;2023-03-23T09:22:52;14.80;99.90
9939;DHT22;5008;50.656;7.188;2023-03-23T09:25:21;14.80;99.90
9939;DHT22;5008;50.656;7.188;2023-03-23T09:27:50;14.80;99.90
9939;DHT22;5008;50.656;7.188;2023-03-23T09:30:22;14.90;99.90
9939;DHT22;5008;50.656;7.188;2023-03-23T09:35:49;14.90;99.90
9939;DHT22;5008;50.656;7.188;2023-03-23T09:38:16;15.00;99.90
9939;DHT22;5008;50.656;7.188;2023-03-23T09:40:46;15.00;99.90
9939;DHT22;5008;50.656;7.188;2023-03-23T09:43:33;15.20;99.90
9939;DHT22;5008;50.656;7.188;2023-03-23T09:46:15;15.40;99.90
9939;DHT22;5008;50.656;7.188;2023-03-23T09:48:50;15.40;99.90
9939;DHT22;5008;50.656;7.188;2023-03-23T09:51:28;15.40;99.90
9939;DHT22;5008;50.656;7.188;2023-03-23T09:54:00;15.50;99.90
9939;DHT22;5008;50.656;7.188;2023-03-23T09:56:30;15.60;99.90
9939;DHT22;5008;50.656;7.188;2023-03-23T09:59:00;15.70;99.90
9939;DHT22;5008;50.656;7.188;2023-03-23T10:01:34;15.80;99.90
9939;DHT22;5008;50.656;7.188;2023-03-23T10:04:08;15.80;99.90
9939;DHT22;5008;50.656;7.188;2023-03-23T10:06:38;15.80;99.90
9939;DHT22;5008;50.656;7.188;2023-03-23T10:09:05;15.80;99.90
9939;DHT22;5008;50.656;7.188;2023-03-23T10:11:45;15.70;99.90
9939;DHT22;5008;50.656;7.188;2023-03-23T10:14:30;15.60;99.90
9939;DHT22;5008;50.656;7.188;2023-03-23T10:17:10;15.60;99.90
9939;DHT22;5008;50.656;7.188;2023-03-23T10:19:46;15.50;99.90
9939;DHT22;5008;50.656;7.188;2023-03-23T10:22:18;15.50;99.90
9939;DHT22;5008;50.656;7.188;2023-03-23T10:24:51;15.50;99.90
9939;DHT22;5008;50.656;7.188;2023-03-23T10:27:26;15.50;99.90
9939;DHT22;5008;50.656;7.188;2023-03-23T10:30:00;15.50;99.90
9939;DHT22;5008;50.656;7.188;2023-03-23T10:32:41;15.50;99.90
9939;DHT22;5008;50.656;7.188;2023-03-23T10:35:13;15.60;99.90
9939;DHT22;5008;50.656;7.188;2023-03-23T10:37:46;15.80;99.90
9939;DHT22;5008;50.656;7.188;2023-03-23T10:40:16;15.80;99.90
9939;DHT22;5008;50.656;7.188;2023-03-23T10:42:43;16.00;99.90
9939;DHT22;5008;50.656;7.188;2023-03-23T10:45:17;16.10;99.90
9939;DHT22;5008;50.656;7.188;2023-03-23T10:47:49;16.00;99.90
9939;DHT22;5008;50.656;7.188;2023-03-23T10:50:23;16.10;99.90
9939;DHT22;5008;50.656;7.188;2023-03-23T10:52:57;16.20;99.90
9939;DHT22;5008;50.656;7.188;2023-03-23T10:55:34;16.10;99.90
9939;DHT22;5008;50.656;7.188;2023-03-23T10:58:04;16.00;99.90
9939;DHT22;5008;50.656;7.188;2023-03-23T11:00:31;15.80;99.90
9939;DHT22;5008;50.656;7.188;2023-03-23T11:03:01;15.60;99.90
9939;DHT22;5008;50.656;7.188;2023-03-23T11:05:34;15.60;99.90
9939;DHT22;5008;50.656;7.188;2023-03-23T11:08:03;15.50;99.90
9939;DHT22;5008;50.656;7.188;2023-03-23T11:10:36;15.50;99.90
9939;DHT22;5008;50.656;7.188;2023-03-23T11:13:03;15.60;99.90
9939;DHT22;5008;50.656;7.188;2023-03-23T11:15:37;15.70;99.90
9939;DHT22;5008;50.656;7.188;2023-03-23T11:18:06;15.70;99.90
9939;DHT22;5008;50.656;7.188;2023-03-23T11:20:37;15.90;99.90
9939;DHT22;5008;50.656;7.188;2023-03-23T11:23:20;16.00;99.90
9939;DHT22;5008;50.656;7.188;2023-03-23T11:25:57;16.20;99.90
9939;DHT22;5008;50.656;7.188;2023-03-23T11:28:30;16.30;99.90
9939;DHT22;5008;50.656;7.188;2023-03-23T11:34:04;16.20;99.90
9939;DHT22;5008;50.656;7.188;2023-03-23T11:36:38;16.20;99.90
9939;DHT22;5008;50.656;7.188;2023-03-23T11:39:22;16.10;99.90
9939;DHT22;5008;50.656;7.188;2023-03-23T11:41:49;16.10;99.90
9939;DHT22;5008;50.656;7.188;2023-03-23T11:44:16;16.00;99.90
9939;DHT22;5008;50.656;7.188;2023-03-23T11:46:52;16.10;99.90
9939;DHT22;5008;50.656;7.188;2023-03-23T11:49:29;16.10;99.90
9939;DHT22;5008;50.656;7.188;2023-03-23T11:52:04;16.20;99.90
9939;DHT22;5008;50.656;7.188;2023-03-23T11:54:34;16.50;99.90
9939;DHT22;5008;50.656;7.188;2023-03-23T11:57:06;16.70;99.90
9939;DHT22;5008;50.656;7.188;2023-03-23T11:59:35;16.70;99.90
9939;DHT22;5008;50.656;7.188;2023-03-23T12:02:20;16.70;99.90
9939;DHT22;5008;50.656;7.188;2023-03-23T12:04:57;16.90;99.90
9939;DHT22;5008;50.656;7.188;2023-03-23T12:07:46;16.80;99.90
9939;DHT22;5008;50.656;7.188;2023-03-23T12:10:23;16.80;99.90
9939;DHT22;5008;50.656;7.188;2023-03-23T12:12:59;16.70;99.90
9939;DHT22;5008;50.656;7.188;2023-03-23T12:15:45;16.70;99.90
9939;DHT22;5008;50.656;7.188;2023-03-23T12:18:22;17.00;99.90
9939;DHT22;5008;50.656;7.188;2023-03-23T12:21:01;17.30;99.90
9939;DHT22;5008;50.656;7.188;2023-03-23T12:23:38;17.30;99.90
9939;DHT22;5008;50.656;7.188;2023-03-23T12:26:17;17.10;99.90
9939;DHT22;5008;50.656;7.188;2023-03-23T12:29:07;17.10;99.90
9939;DHT22;5008;50.656;7.188;2023-03-23T12:31:49;17.00;99.90
9939;DHT22;5008;50.656;7.188;2023-03-23T12:34:28;17.00;99.90
9939;DHT22;5008;50.656;7.188;2023-03-23T12:37:06;16.90;99.90
9939;DHT22;5008;50.656;7.188;2023-03-23T12:42:54;16.80;99.90
9939;DHT22;5008;50.656;7.188;2023-03-23T12:45:49;16.70;99.90
9939;DHT22;5008;50.656;7.188;2023-03-23T12:48:20;16.60;99.90
9939;DHT22;5008;50.656;7.188;2023-03-23T12:51:04;16.60;99.90
9939;DHT22;5008;50.656;7.188;2023-03-23T12:53:36;16.60;99.90
9939;DHT22;5008;50.656;7.188;2023-03-23T12:56:11;16.60;99.90
9939;DHT22;5008;50.656;7.188;2023-03-23T12:58:59;16.50;99.90
9939;DHT22;5008;50.656;7.188;2023-03-23T13:01:31;16.40;99.90
9939;DHT22;5008;50.656;7.188;2023-03-23T13:04:01;16.40;99.90
9939;DHT22;5008;50.656;7.188;2023-03-23T13:06:34;16.40;99.90
9939;DHT22;5008;50.656;7.188;2023-03-23T13:09:05;16.30;99.90
9939;DHT22;5008;50.656;7.188;2023-03-23T13:11:35;16.30;99.90
9939;DHT22;5008;50.656;7.188;2023-03-23T13:14:16;16.30;99.90
9939;DHT22;5008;50.656;7.188;2023-03-23T13:16:52;16.20;99.90
9939;DHT22;5008;50.656;7.188;2023-03-23T13:19:26;16.20;99.90
9939;DHT22;5008;50.656;7.188;2023-03-23T13:22:01;16.30;99.90
9939;DHT22;5008;50.656;7.188;2023-03-23T13:24:30;16.30;99.90
9939;DHT22;5008;50.656;7.188;2023-03-23T13:27:05;16.30;99.90
9939;DHT22;5008;50.656;7.188;2023-03-23T13:29:33;16.30;99.90
9939;DHT22;5008;50.656;7.188;2023-03-23T13:32:06;16.20;99.90
9939;DHT22;5008;50.656;7.188;2023-03-23T13:34:36;16.30;99.90
9939;DHT22;5008;50.656;7.188;2023-03-23T13:37:05;16.50;99.90
9939;DHT22;5008;50.656;7.188;2023-03-23T13:39:34;16.70;99.90
9939;DHT22;5008;50.656;7.188;2023-03-23T13:42:18;16.90;99.90
9939;DHT22;5008;50.656;7.188;2023-03-23T13:45:05;17.10;99.90
9939;DHT22;5008;50.656;7.188;2023-03-23T13:47:38;17.20;99.90
9939;DHT22;5008;50.656;7.188;2023-03-23T13:50:11;17.20;99.90
9939;DHT22;5008;50.656;7.188;2023-03-23T13:52:49;17.20;99.90
9939;DHT22;5008;50.656;7.188;2023-03-23T13:55:21;17.40;99.90
9939;DHT22;5008;50.656;7.188;2023-03-23T13:57:52;18.00;99.90
9939;DHT22;5008;50.656;7.188;2023-03-23T14:00:47;18.80;99.90
9939;DHT22;5008;50.656;7.188;2023-03-23T14:03:18;20.00;99.90
9939;DHT22;5008;50.656;7.188;2023-03-23T14:05:49;21.10;99.90
9939;DHT22;5008;50.656;7.188;2023-03-23T14:08:38;21.60;99.90
9939;DHT22;5008;50.656;7.188;2023-03-23T14:11:12;22.10;99.90
9939;DHT22;5008;50.656;7.188;2023-03-23T14:13:45;21.60;99.90
9939;DHT22;5008;50.656;7.188;2023-03-23T14:16:20;20.70;99.90
9939;DHT22;5008;50.656;7.188;2023-03-23T14:18:53;20.20;99.90
9939;DHT22;5008;50.656;7.188;2023-03-23T14:21:33;19.80;99.90
9939;DHT22;5008;50.656;7.188;2023-03-23T14:24:06;19.30;99.90
9939;DHT22;5008;50.656;7.188;2023-03-23T14:26:34;18.80;99.90
9939;DHT22;5008;50.656;7.188;2023-03-23T14:29:03;18.40;99.90
9939;DHT22;5008;50.656;7.188;2023-03-23T14:31:32;18.30;99.90
9939;DHT22;5008;50.656;7.188;2023-03-23T14:34:12;18.30;99.90
9939;DHT22;5008;50.656;7.188;2023-03-23T14:36:40;18.10;99.90
9939;DHT22;5008;50.656;7.188;2023-03-23T14:39:16;18.10;99.90
9939;DHT22;5008;50.656;7.188;2023-03-23T14:41:44;18.10;99.90
9939;DHT22;5008;50.656;7.188;2023-03-23T14:44:14;18.20;99.90
9939;DHT22;5008;50.656;7.188;2023-03-23T14:46:45;18.10;99.90
9939;DHT22;5008;50.656;7.188;2023-03-23T14:49:14;17.90;99.90
9939;DHT22;5008;50.656;7.188;2023-03-23T14:51:47;17.80;99.90
9939;DHT22;5008;50.656;7.188;2023-03-23T14:54:14;17.60;99.90
9939;DHT22;5008;50.656;7.188;2023-03-23T14:56:41;17.60;99.90
9939;DHT22;5008;50.656;7.188;2023-03-23T14:59:10;17.60;99.90
9939;DHT22;5008;50.656;7.188;2023-03-23T15:01:46;17.60;99.90
9939;DHT22;5008;50.656;7.188;2023-03-23T15:04:16;17.80;99.90
9939;DHT22;5008;50.656;7.188;2023-03-23T15:06:45;17.90;99.90
9939;DHT22;5008;50.656;7.188;2023-03-23T15:09:16;18.10;99.90
9939;DHT22;5008;50.656;7.188;2023-03-23T15:11:51;17.90;99.90
9939;DHT22;5008;50.656;7.188;2023-03-23T15:14:20;18.10;99.90
9939;DHT22;5008;50.656;7.188;2023-03-23T15:16:51;18.30;99.90
9939;DHT22;5008;50.656;7.188;2023-03-23T15:19:21;18.60;99.90
9939;DHT22;5008;50.656;7.188;2023-03-23T15:21:51;18.70;99.90
9939;DHT22;5008;50.656;7.188;2023-03-23T15:24:27;18.80;99.90
9939;DHT22;5008;50.656;7.188;2023-03-23T15:27:04;18.70;99.90
9939;DHT22;5008;50.656;7.188;2023-03-23T15:29:50;18.60;99.90
9939;DHT22;5008;50.656;7.188;2023-03-23T15:32:26;18.70;99.90
9939;DHT22;5008;50.656;7.188;2023-03-23T15:34:54;19.00;99.90
9939;DHT22;5008;50.656;7.188;2023-03-23T15:37:26;19.00;99.90
9939;DHT22;5008;50.656;7.188;2023-03-23T15:39:53;19.30;99.90
9939;DHT22;5008;50.656;7.188;2023-03-23T15:42:23;19.20;99.90
9939;DHT22;5008;50.656;7.188;2023-03-23T15:47:47;18.50;99.90
9939;DHT22;5008;50.656;7.188;2023-03-23T15:50:16;18.20;99.90
9939;DHT22;5008;50.656;7.188;2023-03-23T15:52:44;18.00;99.90
9939;DHT22;5008;50.656;7.188;2023-03-23T15:55:20;17.80;99.90
9939;DHT22;5008;50.656;7.188;2023-03-23T15:57:47;17.60;99.90
9939;DHT22;5008;50.656;7.188;2023-03-23T16:00:16;17.40;99.90
9939;DHT22;5008;50.656;7.188;2023-03-23T16:02:46;17.50;99.90
9939;DHT22;5008;50.656;7.188;2023-03-23T16:05:14;17.60;99.90
9939;DHT22;5008;50.656;7.188;2023-03-23T16:07:41;17.60;99.90
9939;DHT22;5008;50.656;7.188;2023-03-23T16:10:15;17.60;99.90
9939;DHT22;5008;50.656;7.188;2023-03-23T16:12:42;17.40;99.90
9939;DHT22;5008;50.656;7.188;2023-03-23T16:15:10;17.30;99.90
9939;DHT22;5008;50.656;7.188;2023-03-23T16:17:48;17.20;99.90
9939;DHT22;5008;50.656;7.188;2023-03-23T16:20:16;17.20;99.90
9939;DHT22;5008;50.656;7.188;2023-03-23T16:22:43;17.30;99.90
9939;DHT22;5008;50.656;7.188;2023-03-23T16:25:11;17.20;99.90
9939;DHT22;5008;50.656;7.188;2023-03-23T16:27:39;17.20;99.90
9939;DHT22;5008;50.656;7.188;2023-03-23T16:30:13;17.20;99.90
9939;DHT22;5008;50.656;7.188;2023-03-23T16:32:41;17.10;99.90
9939;DHT22;5008;50.656;7.188;2023-03-23T16:35:10;17.10;99.90
9939;DHT22;5008;50.656;7.188;2023-03-23T16:37:37;17.00;99.90
9939;DHT22;5008;50.656;7.188;2023-03-23T16:40:06;16.90;99.90
9939;DHT22;5008;50.656;7.188;2023-03-23T16:42:34;16.80;99.90
9939;DHT22;5008;50.656;7.188;2023-03-23T16:45:00;16.70;99.90
9939;DHT22;5008;50.656;7.188;2023-03-23T16:47:28;16.60;99.90
9939;DHT22;5008;50.656;7.188;2023-03-23T16:49:55;16.60;99.90
9939;DHT22;5008;50.656;7.188;2023-03-23T16:52:23;16.50;99.90
9939;DHT22;5008;50.656;7.188;2023-03-23T16:54:50;16.40;99.90
9939;DHT22;5008;50.656;7.188;2023-03-23T16:57:17;16.30;99.90
9939;DHT22;5008;50.656;7.188;2023-03-23T16:59:44;16.20;99.90
9939;DHT22;5008;50.656;7.188;2023-03-23T17:02:11;16.20;99.90
9939;DHT22;5008;50.656;7.188;2023-03-23T17:04:42;16.10;99.90
9939;DHT22;5008;50.656;7.188;2023-03-23T17:07:09;16.00;99.90
9939;DHT22;5008;50.656;7.188;2023-03-23T17:09:38;15.90;99.90
9939;DHT22;5008;50.656;7.188;2023-03-23T17:12:05;15.90;99.90
9939;DHT22;5008;50.656;7.188;2023-03-23T17:14:32;15.80;99.90
9939;DHT22;5008;50.656;7.188;2023-03-23T17:17:00;15.80;99.90
9939;DHT22;5008;50.656;7.188;2023-03-23T17:19:27;15.80;99.90
9939;DHT22;5008;50.656;7.188;2023-03-23T17:21:53;15.70;99.90
9939;DHT22;5008;50.656;7.188;2023-03-23T17:24:20;15.70;99.90
9939;DHT22;5008;50.656;7.188;2023-03-23T17:26:48;15.60;99.90
9939;DHT22;5008;50.656;7.188;2023-03-23T17:29:16;15.60;99.90
9939;DHT22;5008;50.656;7.188;2023-03-23T17:31:43;15.60;99.90
9939;DHT22;5008;50.656;7.188;2023-03-23T17:34:10;15.50;99.90
9939;DHT22;5008;50.656;7.188;2023-03-23T17:36:37;15.40;99.90
9939;DHT22;5008;50.656;7.188;2023-03-23T17:39:04;15.40;99.90
9939;DHT22;5008;50.656;7.188;2023-03-23T17:41:31;15.30;99.90
9939;DHT22;5008;50.656;7.188;2023-03-23T17:43:59;15.30;99.90
9939;DHT22;5008;50.656;7.188;2023-03-23T17:46:29;15.20;99.90
9939;DHT22;5008;50.656;7.188;2023-03-23T17:48:56;15.20;99.90
9939;DHT22;5008;50.656;7.188;2023-03-23T17:51:22;15.10;99.90
9939;DHT22;5008;50.656;7.188;2023-03-23T17:53:49;15.10;99.90
9939;DHT22;5008;50.656;7.188;2023-03-23T17:56:16;15.00;99.90
9939;DHT22;5008;50.656;7.188;2023-03-23T17:58:43;15.00;99.90
9939;DHT22;5008;50.656;7.188;2023-03-23T18:01:17;15.00;99.90
9939;DHT22;5008;50.656;7.188;2023-03-23T18:03:43;15.00;99.90
9939;DHT22;5008;50.656;7.188;2023-03-23T18:06:10;14.90;99.90
9939;DHT22;5008;50.656;7.188;2023-03-23T18:08:37;14.90;99.90
9939;DHT22;5008;50.656;7.188;2023-03-23T18:11:05;15.00;99.90
9939;DHT22;5008;50.656;7.188;2023-03-23T18:13:43;15.00;99.90
9939;DHT22;5008;50.656;7.188;2023-03-23T18:16:10;14.90;99.90
9939;DHT22;5008;50.656;7.188;2023-03-23T18:18:38;14.80;99.90
9939;DHT22;5008;50.656;7.188;2023-03-23T18:21:06;14.80;99.90
9939;DHT22;5008;50.656;7.188;2023-03-23T18:23:35;14.70;99.90
9939;DHT22;5008;50.656;7.188;2023-03-23T18:26:03;14.80;99.90
9939;DHT22;5008;50.656;7.188;2023-03-23T18:28:30;14.70;99.90
9939;DHT22;5008;50.656;7.188;2023-03-23T18:31:01;14.70;99.90
9939;DHT22;5008;50.656;7.188;2023-03-23T18:33:29;14.70;99.90
9939;DHT22;5008;50.656;7.188;2023-03-23T18:35:59;14.80;99.90
9939;DHT22;5008;50.656;7.188;2023-03-23T18:38:26;14.80;99.90
9939;DHT22;5008;50.656;7.188;2023-03-23T18:40:53;14.80;99.90
9939;DHT22;5008;50.656;7.188;2023-03-23T18:43:20;14.80;99.90
9939;DHT22;5008;50.656;7.188;2023-03-23T18:45:48;14.70;99.90
9939;DHT22;5008;50.656;7.188;2023-03-23T18:48:16;14.70;99.90
9939;DHT22;5008;50.656;7.188;2023-03-23T18:50:59;14.70;99.90
9939;DHT22;5008;50.656;7.188;2023-03-23T18:53:27;14.70;99.90
9939;DHT22;5008;50.656;7.188;2023-03-23T18:56:03;14.60;99.90
9939;DHT22;5008;50.656;7.188;2023-03-23T18:58:30;14.60;99.90
9939;DHT22;5008;50.656;7.188;2023-03-23T19:00:57;14.60;99.90
9939;DHT22;5008;50.656;7.188;2023-03-23T19:03:24;14.80;99.90
9939;DHT22;5008;50.656;7.188;2023-03-23T19:05:51;14.60;99.90
9939;DHT22;5008;50.656;7.188;2023-03-23T19:08:19;14.60;99.90
9939;DHT22;5008;50.656;7.188;2023-03-23T19:10:46;14.60;99.90
9939;DHT22;5008;50.656;7.188;2023-03-23T19:13:13;14.50;99.90
9939;DHT22;5008;50.656;7.188;2023-03-23T19:15:41;14.50;99.90
9939;DHT22;5008;50.656;7.188;2023-03-23T19:18:08;14.50;99.90
9939;DHT22;5008;50.656;7.188;2023-03-23T19:20:35;14.40;99.90
9939;DHT22;5008;50.656;7.188;2023-03-23T19:23:02;14.40;99.90
9939;DHT22;5008;50.656;7.188;2023-03-23T19:25:30;14.40;99.90
9939;DHT22;5008;50.656;7.188;2023-03-23T19:27:57;14.30;99.90
9939;DHT22;5008;50.656;7.188;2023-03-23T19:30:23;14.30;99.90
9939;DHT22;5008;50.656;7.188;2023-03-23T19:32:51;14.30;99.90
9939;DHT22;5008;50.656;7.188;2023-03-23T19:35:18;14.20;99.90
9939;DHT22;5008;50.656;7.188;2023-03-23T19:37:45;14.20;99.90
9939;DHT22;5008;50.656;7.188;2023-03-23T19:40:12;14.20;99.90
9939;DHT22;5008;50.656;7.188;2023-03-23T19:42:40;14.20;99.90
9939;DHT22;5008;50.656;7.188;2023-03-23T19:45:08;14.10;99.90
9939;DHT22;5008;50.656;7.188;2023-03-23T19:47:34;14.10;99.90
9939;DHT22;5008;50.656;7.188;2023-03-23T19:50:01;14.10;99.90
9939;DHT22;5008;50.656;7.188;2023-03-23T19:52:28;14.10;99.90
9939;DHT22;5008;50.656;7.188;2023-03-23T19:54:55;14.10;99.90
9939;DHT22;5008;50.656;7.188;2023-03-23T19:57:22;14.00;99.90
9939;DHT22;5008;50.656;7.188;2023-03-23T19:59:50;14.10;99.90
9939;DHT22;5008;50.656;7.188;2023-03-23T20:02:17;14.10;99.90
9939;DHT22;5008;50.656;7.188;2023-03-23T20:04:44;14.10;99.90
9939;DHT22;5008;50.656;7.188;2023-03-23T20:07:11;14.00;99.90
9939;DHT22;5008;50.656;7.188;2023-03-23T20:09:38;14.00;99.90
9939;DHT22;5008;50.656;7.188;2023-03-23T20:12:07;13.90;99.90
9939;DHT22;5008;50.656;7.188;2023-03-23T20:14:34;14.00;99.90
9939;DHT22;5008;50.656;7.188;2023-03-23T20:17:04;14.00;99.90
9939;DHT22;5008;50.656;7.188;2023-03-23T20:19:33;13.90;99.90
9939;DHT22;5008;50.656;7.188;2023-03-23T20:22:00;13.80;99.90
9939;DHT22;5008;50.656;7.188;2023-03-23T20:24:27;13.90;99.90
9939;DHT22;5008;50.656;7.188;2023-03-23T20:26:54;13.90;99.90
9939;DHT22;5008;50.656;7.188;2023-03-23T20:29:21;13.80;99.90
9939;DHT22;5008;50.656;7.188;2023-03-23T20:31:47;13.80;99.90
9939;DHT22;5008;50.656;7.188;2023-03-23T20:34:17;13.80;99.90
9939;DHT22;5008;50.656;7.188;2023-03-23T20:36:53;13.80;99.90
9939;DHT22;5008;50.656;7.188;2023-03-23T20:39:22;13.70;99.90
9939;DHT22;5008;50.656;7.188;2023-03-23T20:41:51;13.80;99.90
9939;DHT22;5008;50.656;7.188;2023-03-23T20:44:20;13.70;99.90
9939;DHT22;5008;50.656;7.188;2023-03-23T20:46:48;13.70;99.90
9939;DHT22;5008;50.656;7.188;2023-03-23T20:49:18;13.60;99.90
9939;DHT22;5008;50.656;7.188;2023-03-23T20:51:46;13.60;99.90
9939;DHT22;5008;50.656;7.188;2023-03-23T20:54:14;13.70;99.90
9939;DHT22;5008;50.656;7.188;2023-03-23T20:56:43;13.70;99.90
9939;DHT22;5008;50.656;7.188;2023-03-23T20:59:11;13.70;99.90
9939;DHT22;5008;50.656;7.188;2023-03-23T21:01:38;13.70;99.90
9939;DHT22;5008;50.656;7.188;2023-03-23T21:04:06;13.70;99.90
9939;DHT22;5008;50.656;7.188;2023-03-23T21:06:41;13.60;99.90
9939;DHT22;5008;50.656;7.188;2023-03-23T21:09:08;13.70;99.90
9939;DHT22;5008;50.656;7.188;2023-03-23T21:11:35;13.70;99.90
9939;DHT22;5008;50.656;7.188;2023-03-23T21:14:03;13.60;99.90
9939;DHT22;5008;50.656;7.188;2023-03-23T21:16:30;13.80;99.90
9939;DHT22;5008;50.656;7.188;2023-03-23T21:18:57;13.80;99.90
9939;DHT22;5008;50.656;7.188;2023-03-23T21:21:24;13.90;99.90
9939;DHT22;5008;50.656;7.188;2023-03-23T21:23:53;14.00;99.90
9939;DHT22;5008;50.656;7.188;2023-03-23T21:26:23;14.20;99.90
9939;DHT22;5008;50.656;7.188;2023-03-23T21:28:51;14.30;99.90
9939;DHT22;5008;50.656;7.188;2023-03-23T21:31:19;14.30;99.90
9939;DHT22;5008;50.656;7.188;2023-03-23T21:33:47;14.30;99.90